createdAt,value
2023-05-06T00:01:30.451Z,3.70
2023-05-06T00:03:58.631Z,3.70
2023-05-06T00:06:27.666Z,3.30
2023-05-06T00:08:56.086Z,3.50
2023-05-06T00:11:24.166Z,3.30
2023-05-06T00:13:52.230Z,3.50
2023-05-06T00:16:20.444Z,3.40
2023-05-06T00:18:48.686Z,3.60
2023-05-06T00:21:16.853Z,3.60
2023-05-06T00:23:45.024Z,3.70
2023-05-06T00:26:13.061Z,3.50
2023-05-06T00:28:41.080Z,3.70
2023-05-06T00:31:09.950Z,3.40
2023-05-06T00:33:38.129Z,3.40
2023-05-06T00:36:06.815Z,3.00
2023-05-06T00:38:34.978Z,3.60
2023-05-06T00:41:03.567Z,3.40
2023-05-06T00:43:31.636Z,3.50
2023-05-06T00:46:00.193Z,3.40
2023-05-06T00:48:28.678Z,3.40
2023-05-06T00:50:57.694Z,3.80
2023-05-06T00:53:25.761Z,3.60
2023-05-06T00:55:54.340Z,3.50
2023-05-06T00:58:22.841Z,3.60
2023-05-06T01:00:52.452Z,3.70
2023-05-06T01:03:21.061Z,3.60
2023-05-06T01:06:03.342Z,3.70
2023-05-06T01:09:14.820Z,3.70
2023-05-06T01:12:12.402Z,3.90
2023-05-06T01:14:46.032Z,3.70
2023-05-06T01:17:18.476Z,3.60
2023-05-06T01:19:51.044Z,3.60
2023-05-06T01:22:19.847Z,4.00
2023-05-06T01:24:47.936Z,3.70
2023-05-06T01:27:18.827Z,3.50
2023-05-06T01:29:48.338Z,3.60
2023-05-06T01:32:19.507Z,4.00
2023-05-06T01:34:56.842Z,3.70
2023-05-06T01:37:59.638Z,4.00
2023-05-06T01:40:30.505Z,3.60
2023-05-06T01:43:02.465Z,3.90
2023-05-06T01:45:34.023Z,3.60
2023-05-06T01:48:02.711Z,3.60
2023-05-06T01:50:31.459Z,3.50
2023-05-06T01:53:01.274Z,3.40
2023-05-06T01:55:29.851Z,3.30
2023-05-06T01:57:58.182Z,3.20
2023-05-06T02:00:27.117Z,3.40
2023-05-06T02:02:55.417Z,3.30
2023-05-06T02:05:23.672Z,3.30
2023-05-06T02:07:52.762Z,3.40
2023-05-06T02:10:21.245Z,3.30
2023-05-06T02:12:55.908Z,3.30
2023-05-06T02:15:24.255Z,3.40
2023-05-06T02:17:53.062Z,3.10
2023-05-06T02:20:21.304Z,3.10
2023-05-06T02:22:49.277Z,3.00
2023-05-06T02:25:17.380Z,3.10
2023-05-06T02:27:46.872Z,3.20
2023-05-06T02:30:15.226Z,3.00
2023-05-06T02:32:43.321Z,2.70
2023-05-06T02:35:11.614Z,2.80
2023-05-06T02:37:39.782Z,3.00
2023-05-06T02:40:09.100Z,3.00
2023-05-06T02:42:37.255Z,2.70
2023-05-06T02:45:05.859Z,3.20
2023-05-06T02:47:33.898Z,2.90
2023-05-06T02:50:02.126Z,2.50
2023-05-06T02:52:30.168Z,2.60
2023-05-06T02:54:58.263Z,2.80
2023-05-06T02:57:26.569Z,2.60
2023-05-06T02:59:54.736Z,2.50
2023-05-06T03:02:22.836Z,2.80
2023-05-06T03:04:51.192Z,2.60
2023-05-06T03:07:20.495Z,2.80
2023-05-06T03:09:49.067Z,2.60
2023-05-06T03:12:17.139Z,2.60
2023-05-06T03:14:45.308Z,2.50
2023-05-06T03:17:13.565Z,2.50
2023-05-06T03:19:41.659Z,2.30
2023-05-06T03:22:10.542Z,2.70
2023-05-06T03:24:41.427Z,2.60
2023-05-06T03:27:09.452Z,2.20
2023-05-06T03:29:37.568Z,2.40
2023-05-06T03:32:06.527Z,2.20
2023-05-06T03:34:40.322Z,2.20
2023-05-06T03:37:09.278Z,2.50
2023-05-06T03:39:37.694Z,2.40
2023-05-06T03:42:08.601Z,2.10
2023-05-06T03:44:38.233Z,2.30
2023-05-06T03:47:06.708Z,2.20
2023-05-06T03:49:34.983Z,2.40
2023-05-06T03:52:03.091Z,2.30
2023-05-06T03:54:31.643Z,2.10
2023-05-06T03:57:00.216Z,2.10
2023-05-06T03:59:28.189Z,2.10
2023-05-06T04:01:57.104Z,2.10
2023-05-06T04:04:27.463Z,2.30
2023-05-06T04:06:55.519Z,2.00
2023-05-06T04:09:24.854Z,2.10
2023-05-06T04:11:52.992Z,2.00
2023-05-06T04:14:20.919Z,1.90
2023-05-06T04:16:49.339Z,2.20
2023-05-06T04:19:17.956Z,1.90
2023-05-06T04:21:46.711Z,1.90
2023-05-06T04:24:18.144Z,2.00
2023-05-06T04:26:46.177Z,2.10
2023-05-06T04:29:14.598Z,2.00
2023-05-06T04:31:50.380Z,2.00
2023-05-06T04:34:18.384Z,1.70
2023-05-06T04:36:48.069Z,1.80
2023-05-06T04:39:21.128Z,1.90
2023-05-06T04:41:49.451Z,1.70
2023-05-06T04:44:20.392Z,1.70
2023-05-06T04:46:48.777Z,1.80
2023-05-06T04:49:17.250Z,1.70
2023-05-06T04:51:45.652Z,1.90
2023-05-06T04:54:14.080Z,1.60
2023-05-06T04:56:42.176Z,1.70
2023-05-06T04:59:11.074Z,1.70
2023-05-06T05:01:39.409Z,1.50
2023-05-06T05:04:07.560Z,1.70
2023-05-06T05:06:35.690Z,1.60
2023-05-06T05:09:03.973Z,1.50
2023-05-06T05:11:32.605Z,1.60
2023-05-06T05:14:02.170Z,1.50
2023-05-06T05:16:31.613Z,1.40
2023-05-06T05:19:03.315Z,1.60
2023-05-06T05:21:33.061Z,1.70
2023-05-06T05:24:01.394Z,1.50
2023-05-06T05:26:29.737Z,1.40
2023-05-06T05:28:58.228Z,1.70
2023-05-06T05:31:26.456Z,1.60
2023-05-06T05:33:54.744Z,1.40
2023-05-06T05:36:23.803Z,1.50
2023-05-06T05:38:54.542Z,1.60
2023-05-06T05:41:23.350Z,1.80
2023-05-06T05:43:51.416Z,1.80
2023-05-06T05:46:20.111Z,2.00
2023-05-06T05:48:48.818Z,2.20
2023-05-06T05:51:17.997Z,2.60
2023-05-06T05:53:46.414Z,2.60
2023-05-06T05:56:15.166Z,2.70
2023-05-06T05:58:43.394Z,2.70
2023-05-06T06:01:11.662Z,2.10
2023-05-06T06:03:39.896Z,1.50
2023-05-06T06:06:09.549Z,1.40
2023-05-06T06:08:37.927Z,1.50
2023-05-06T06:11:06.479Z,1.70
2023-05-06T06:13:40.840Z,1.70
2023-05-06T06:16:09.291Z,2.30
2023-05-06T06:18:37.506Z,1.60
2023-05-06T06:21:05.549Z,1.50
2023-05-06T06:23:33.516Z,1.90
2023-05-06T06:26:03.985Z,1.40
2023-05-06T06:28:33.855Z,1.60
2023-05-06T06:31:02.100Z,1.80
2023-05-06T06:33:30.136Z,1.50
2023-05-06T06:35:58.592Z,1.90
2023-05-06T06:38:26.816Z,2.00
2023-05-06T06:40:54.832Z,1.70
2023-05-06T06:43:24.021Z,1.50
2023-05-06T06:46:03.107Z,1.60
2023-05-06T06:48:31.450Z,1.40
2023-05-06T06:50:59.599Z,1.60
2023-05-06T06:53:27.615Z,1.50
2023-05-06T06:55:55.655Z,1.80
2023-05-06T06:58:23.809Z,1.90
2023-05-06T07:00:51.754Z,1.70
2023-05-06T07:03:19.951Z,1.80
2023-05-06T07:05:48.453Z,1.60
2023-05-06T07:08:17.299Z,1.60
2023-05-06T07:10:45.400Z,1.50
2023-05-06T07:13:13.541Z,1.50
2023-05-06T07:15:41.738Z,1.40
2023-05-06T07:18:10.074Z,1.80
2023-05-06T07:20:38.174Z,2.00
2023-05-06T07:23:06.214Z,2.10
2023-05-06T07:25:35.557Z,1.60
2023-05-06T07:28:03.717Z,1.60
2023-05-06T07:30:31.803Z,1.50
2023-05-06T07:33:00.309Z,1.40
2023-05-06T07:35:28.411Z,1.40
2023-05-06T07:37:56.387Z,1.70
2023-05-06T07:40:24.518Z,1.70
2023-05-06T07:42:52.585Z,1.40
2023-05-06T07:45:23.703Z,2.00
2023-05-06T07:47:51.927Z,1.50
2023-05-06T07:50:20.320Z,2.00
2023-05-06T07:52:48.262Z,1.90
2023-05-06T07:55:16.304Z,2.00
2023-05-06T07:57:44.366Z,1.90
2023-05-06T08:00:12.948Z,2.10
2023-05-06T08:02:44.642Z,1.50
2023-05-06T08:05:14.188Z,1.90
2023-05-06T08:07:42.533Z,1.60
2023-05-06T08:10:11.241Z,1.70
2023-05-06T08:12:39.253Z,1.90
2023-05-06T08:15:08.367Z,1.80
2023-05-06T08:17:36.433Z,1.70
2023-05-06T08:20:05.114Z,2.00
2023-05-06T08:22:33.294Z,1.90
2023-05-06T08:25:02.021Z,1.70
2023-05-06T08:27:30.024Z,1.60
2023-05-06T08:29:58.087Z,1.80
2023-05-06T08:32:26.256Z,1.90
2023-05-06T08:34:54.222Z,1.80
2023-05-06T08:37:22.205Z,1.70
2023-05-06T08:39:50.391Z,2.10
2023-05-06T08:42:18.603Z,2.50
2023-05-06T08:44:47.740Z,1.60
2023-05-06T08:47:15.814Z,1.80
2023-05-06T08:49:43.797Z,1.80
2023-05-06T08:52:12.529Z,2.10
2023-05-06T08:54:41.535Z,3.40
2023-05-06T08:57:12.793Z,1.90
2023-05-06T08:59:42.545Z,1.80
2023-05-06T09:02:11.861Z,1.80
2023-05-06T09:04:41.318Z,2.00
2023-05-06T09:07:09.428Z,1.90
2023-05-06T09:09:37.470Z,2.30
2023-05-06T09:12:11.542Z,2.20
2023-05-06T09:14:40.366Z,2.30
2023-05-06T09:17:28.348Z,2.20
2023-05-06T09:19:57.575Z,2.00
2023-05-06T09:22:30.564Z,2.00
2023-05-06T09:24:59.028Z,1.80
2023-05-06T09:27:31.329Z,1.70
2023-05-06T09:30:12.689Z,1.70
2023-05-06T09:32:41.400Z,1.70
2023-05-06T09:35:10.743Z,1.80
2023-05-06T09:37:39.778Z,1.80
2023-05-06T09:40:09.492Z,2.00
2023-05-06T09:42:37.910Z,1.90
2023-05-06T09:45:08.717Z,2.30
2023-05-06T09:47:38.202Z,2.20
2023-05-06T09:50:09.026Z,2.20
2023-05-06T09:52:37.360Z,2.10
2023-05-06T09:55:06.998Z,1.80
2023-05-06T09:57:37.123Z,2.20
2023-05-06T10:00:12.171Z,2.10
2023-05-06T10:02:44.446Z,2.10
2023-05-06T10:05:14.032Z,2.30
2023-05-06T10:07:42.695Z,3.30
2023-05-06T10:10:12.609Z,2.50
2023-05-06T10:12:41.058Z,2.20
2023-05-06T10:15:10.105Z,2.00
2023-05-06T10:17:40.959Z,1.90
2023-05-06T10:20:13.919Z,1.80
2023-05-06T10:22:49.471Z,2.00
2023-05-06T10:25:26.436Z,1.80
2023-05-06T10:27:54.633Z,2.20
2023-05-06T10:30:25.177Z,2.10
2023-05-06T10:32:57.509Z,2.00
2023-05-06T10:35:25.566Z,1.80
2023-05-06T10:37:56.583Z,1.90
2023-05-06T10:40:24.752Z,2.10
2023-05-06T10:42:52.793Z,2.00
2023-05-06T10:45:20.916Z,1.80
2023-05-06T10:47:58.076Z,2.30
2023-05-06T10:50:27.401Z,2.20
2023-05-06T10:52:57.838Z,2.30
2023-05-06T10:55:32.773Z,1.90
2023-05-06T10:58:16.551Z,2.50
2023-05-06T11:00:58.276Z,2.20
2023-05-06T11:03:26.555Z,2.00
2023-05-06T11:05:54.989Z,1.90
2023-05-06T11:08:25.773Z,1.80
2023-05-06T11:10:54.370Z,1.90
2023-05-06T11:13:28.303Z,1.80
2023-05-06T11:15:58.270Z,1.90
2023-05-06T11:18:34.023Z,1.90
2023-05-06T11:21:07.379Z,2.10
2023-05-06T11:23:50.726Z,2.00
2023-05-06T11:26:19.338Z,2.10
2023-05-06T11:28:49.618Z,1.80
2023-05-06T11:31:18.026Z,2.00
2023-05-06T11:33:52.886Z,1.90
2023-05-06T11:36:21.921Z,2.20
2023-05-06T11:38:52.684Z,2.00
2023-05-06T11:41:23.403Z,2.00
2023-05-06T11:43:53.697Z,2.10
2023-05-06T11:46:23.793Z,2.30
2023-05-06T11:48:52.041Z,2.10
2023-05-06T11:51:23.729Z,1.90
2023-05-06T11:53:53.102Z,2.00
2023-05-06T11:56:21.338Z,2.00
2023-05-06T11:58:49.604Z,1.90
2023-05-06T12:01:17.677Z,1.90
2023-05-06T12:03:45.927Z,2.10
2023-05-06T12:06:14.327Z,1.80
2023-05-06T12:08:42.454Z,2.10
2023-05-06T12:11:11.324Z,2.00
2023-05-06T12:13:40.721Z,1.90
2023-05-06T12:16:10.350Z,2.10
2023-05-06T12:18:38.892Z,1.80
2023-05-06T12:21:07.474Z,2.30
2023-05-06T12:23:35.455Z,1.90
2023-05-06T12:26:09.255Z,2.10
2023-05-06T12:28:37.694Z,2.10
2023-05-06T12:31:22.715Z,2.10
2023-05-06T12:33:50.970Z,2.00
2023-05-06T12:36:19.783Z,2.00
2023-05-06T12:38:56.408Z,2.00
2023-05-06T12:41:26.139Z,1.90
2023-05-06T12:43:54.121Z,2.10
2023-05-06T12:46:22.225Z,1.90
2023-05-06T12:49:00.665Z,2.10
2023-05-06T12:51:31.129Z,2.00
2023-05-06T12:53:59.283Z,2.00
2023-05-06T12:56:27.361Z,2.00
2023-05-06T12:58:59.922Z,1.90
2023-05-06T13:01:28.111Z,1.90
2023-05-06T13:03:59.291Z,1.90
2023-05-06T13:06:27.245Z,2.20
2023-05-06T13:08:55.257Z,2.00
2023-05-06T13:11:25.864Z,1.90
2023-05-06T13:13:53.992Z,2.00
2023-05-06T13:16:22.489Z,2.00
2023-05-06T13:18:50.832Z,2.20
2023-05-06T13:21:19.013Z,2.60
2023-05-06T13:23:48.133Z,2.30
2023-05-06T13:26:17.500Z,2.50
2023-05-06T13:28:45.517Z,2.30
2023-05-06T13:31:13.623Z,2.50
2023-05-06T13:33:41.811Z,2.50
2023-05-06T13:36:10.004Z,2.30
2023-05-06T13:38:37.956Z,2.10
2023-05-06T13:41:07.450Z,2.30
2023-05-06T13:43:35.440Z,1.90
2023-05-06T13:46:04.150Z,2.20
2023-05-06T13:48:32.112Z,2.40
2023-05-06T13:51:00.206Z,3.70
2023-05-06T13:53:28.229Z,2.40
2023-05-06T13:55:56.161Z,2.20
2023-05-06T13:58:24.186Z,2.00
2023-05-06T14:00:52.234Z,2.10
2023-05-06T14:03:20.306Z,2.00
2023-05-06T14:05:48.401Z,2.00
2023-05-06T14:08:16.349Z,2.00
2023-05-06T14:10:44.414Z,3.50
2023-05-06T14:13:12.526Z,2.30
2023-05-06T14:15:40.757Z,2.10
2023-05-06T14:18:08.786Z,2.10
2023-05-06T14:20:36.809Z,2.40
2023-05-06T14:23:06.670Z,2.50
2023-05-06T14:25:34.886Z,2.80
2023-05-06T14:28:03.160Z,2.40
2023-05-06T14:30:31.735Z,2.10
2023-05-06T14:33:00.301Z,2.00
2023-05-06T14:35:28.444Z,2.00
2023-05-06T14:37:56.527Z,2.10
2023-05-06T14:40:24.718Z,2.10
2023-05-06T14:42:53.733Z,2.00
2023-05-06T14:45:21.802Z,2.40
2023-05-06T14:47:49.904Z,2.20
2023-05-06T14:50:18.657Z,2.50
2023-05-06T14:52:46.842Z,2.60
2023-05-06T14:55:15.158Z,2.20
2023-05-06T14:57:43.128Z,2.60
2023-05-06T15:00:12.845Z,2.60
2023-05-06T15:02:41.195Z,2.40
2023-05-06T15:05:13.555Z,2.40
2023-05-06T15:07:42.015Z,2.50
2023-05-06T15:10:10.780Z,11.90
2023-05-06T15:12:38.962Z,5.60
2023-05-06T15:15:08.298Z,2.90
2023-05-06T15:17:36.559Z,5.30
2023-05-06T15:20:06.914Z,13.10
2023-05-06T15:22:36.722Z,12.20
2023-05-06T15:25:09.527Z,2.40
2023-05-06T15:27:40.306Z,4.10
2023-05-06T15:30:09.193Z,4.50
2023-05-06T15:32:37.413Z,9.50
2023-05-06T15:35:06.479Z,7.00
2023-05-06T15:37:34.731Z,4.30
2023-05-06T15:40:02.803Z,5.50
2023-05-06T15:42:30.794Z,4.20
2023-05-06T15:44:58.849Z,4.10
2023-05-06T15:47:26.936Z,5.10
2023-05-06T15:49:55.310Z,3.50
2023-05-06T15:52:25.041Z,4.00
2023-05-06T15:54:57.715Z,3.00
2023-05-06T15:57:30.398Z,5.20
2023-05-06T15:59:58.529Z,4.30
2023-05-06T16:02:27.512Z,4.50
2023-05-06T16:04:56.339Z,3.80
2023-05-06T16:07:24.681Z,3.20
2023-05-06T16:09:52.650Z,2.80
2023-05-06T16:12:20.601Z,2.80
2023-05-06T16:14:48.701Z,3.40
2023-05-06T16:17:16.963Z,3.50
2023-05-06T16:19:44.931Z,2.50
2023-05-06T16:22:12.917Z,2.30
2023-05-06T16:24:40.831Z,2.50
2023-05-06T16:27:08.834Z,2.80
2023-05-06T16:29:36.829Z,3.10
2023-05-06T16:32:05.430Z,2.20
2023-05-06T16:34:33.492Z,2.50
2023-05-06T16:37:01.528Z,2.30
2023-05-06T16:39:29.503Z,2.60
2023-05-06T16:41:57.401Z,2.50
2023-05-06T16:44:25.385Z,2.60
2023-05-06T16:46:53.440Z,2.50
2023-05-06T16:49:22.114Z,2.40
2023-05-06T16:51:50.160Z,2.90
2023-05-06T16:54:18.048Z,2.80
2023-05-06T16:56:52.233Z,2.40
2023-05-06T16:59:22.386Z,2.70
2023-05-06T17:01:50.935Z,2.70
2023-05-06T17:04:18.955Z,3.00
2023-05-06T17:06:46.976Z,2.90
2023-05-06T17:09:15.050Z,2.70
2023-05-06T17:11:43.431Z,2.60
2023-05-06T17:14:11.696Z,3.70
2023-05-06T17:16:40.864Z,3.30
2023-05-06T17:19:09.278Z,3.20
2023-05-06T17:21:37.246Z,2.80
2023-05-06T17:24:06.641Z,2.90
2023-05-06T17:26:34.899Z,2.90
2023-05-06T17:29:03.089Z,2.90
2023-05-06T17:31:31.140Z,3.30
2023-05-06T17:33:59.287Z,3.50
2023-05-06T17:36:27.708Z,3.60
2023-05-06T17:39:04.868Z,3.60
2023-05-06T17:41:33.712Z,4.10
2023-05-06T17:44:01.751Z,4.00
2023-05-06T17:46:31.492Z,3.30
2023-05-06T17:48:59.638Z,3.20
2023-05-06T17:51:27.650Z,3.50
2023-05-06T17:53:55.922Z,3.80
2023-05-06T17:56:23.956Z,3.50
2023-05-06T17:58:52.021Z,4.50
2023-05-06T18:01:20.123Z,6.20
2023-05-06T18:03:48.276Z,8.60
2023-05-06T18:06:16.472Z,7.40
2023-05-06T18:08:45.078Z,7.30
2023-05-06T18:11:13.096Z,4.70
2023-05-06T18:13:41.063Z,4.00
2023-05-06T18:16:09.171Z,3.80
2023-05-06T18:18:37.203Z,3.60
2023-05-06T18:21:05.181Z,4.20
2023-05-06T18:23:33.324Z,4.00
2023-05-06T18:26:04.634Z,4.00
2023-05-06T18:28:37.634Z,4.70
2023-05-06T18:31:06.787Z,5.00
2023-05-06T18:33:35.803Z,4.80
2023-05-06T18:36:03.929Z,4.70
2023-05-06T18:38:32.011Z,5.40
2023-05-06T18:41:02.050Z,5.80
2023-05-06T18:43:30.874Z,6.30
2023-05-06T18:45:58.935Z,5.60
2023-05-06T18:48:27.006Z,5.30
2023-05-06T18:50:55.142Z,4.40
2023-05-06T18:53:23.168Z,5.90
2023-05-06T18:55:51.103Z,4.60
2023-05-06T18:58:19.394Z,4.10
2023-05-06T19:00:47.335Z,4.40
2023-05-06T19:03:15.369Z,4.10
2023-05-06T19:05:43.340Z,4.70
2023-05-06T19:08:11.412Z,4.30
2023-05-06T19:10:39.898Z,4.50
2023-05-06T19:13:07.938Z,4.00
2023-05-06T19:15:36.050Z,4.00
2023-05-06T19:18:05.116Z,3.80
2023-05-06T19:20:34.220Z,4.80
2023-05-06T19:23:03.732Z,4.10
2023-05-06T19:25:33.122Z,3.50
2023-05-06T19:28:01.052Z,3.40
2023-05-06T19:30:34.941Z,3.40
2023-05-06T19:33:04.581Z,3.80
2023-05-06T19:35:32.615Z,3.80
2023-05-06T19:38:00.620Z,3.70
2023-05-06T19:40:29.106Z,3.60
2023-05-06T19:43:03.712Z,4.60
2023-05-06T19:45:33.401Z,3.90
2023-05-06T19:48:04.328Z,3.70
2023-05-06T19:50:35.559Z,3.50
2023-05-06T19:53:03.874Z,4.30
2023-05-06T19:55:32.157Z,3.50
2023-05-06T19:58:00.370Z,3.70
2023-05-06T20:00:30.303Z,3.80
2023-05-06T20:02:59.166Z,4.40
2023-05-06T20:05:32.020Z,3.90
2023-05-06T20:08:00.549Z,4.10
2023-05-06T20:10:29.022Z,3.90
2023-05-06T20:12:58.046Z,3.70
2023-05-06T20:15:26.802Z,3.50
2023-05-06T20:17:54.824Z,3.60
2023-05-06T20:20:23.039Z,4.20
2023-05-06T20:22:51.116Z,4.10
2023-05-06T20:25:19.328Z,4.10
2023-05-06T20:27:47.221Z,4.10
2023-05-06T20:30:15.382Z,4.00
2023-05-06T20:32:43.559Z,3.90
2023-05-06T20:35:12.246Z,3.70
2023-05-06T20:37:41.361Z,5.70
2023-05-06T20:40:10.234Z,3.80
2023-05-06T20:42:38.261Z,3.90
2023-05-06T20:45:07.285Z,4.00
2023-05-06T20:47:36.134Z,3.60
2023-05-06T20:50:04.847Z,3.70
2023-05-06T20:52:34.165Z,3.90
2023-05-06T20:55:03.334Z,4.10
2023-05-06T20:57:31.328Z,4.80
2023-05-06T20:59:59.300Z,4.70
2023-05-06T21:02:30.363Z,4.40
2023-05-06T21:04:58.567Z,4.10
2023-05-06T21:07:26.661Z,4.40
2023-05-06T21:09:54.603Z,4.10
2023-05-06T21:12:22.654Z,4.30
2023-05-06T21:14:50.717Z,4.50
2023-05-06T21:17:19.165Z,4.50
2023-05-06T21:19:48.832Z,4.20
2023-05-06T21:22:16.885Z,4.20
2023-05-06T21:24:44.848Z,4.70
2023-05-06T21:27:13.019Z,5.00
2023-05-06T21:29:40.991Z,4.30
2023-05-06T21:32:08.965Z,4.00
2023-05-06T21:34:36.949Z,4.40
2023-05-06T21:37:04.998Z,4.40
2023-05-06T21:39:33.093Z,4.60
2023-05-06T21:42:01.129Z,4.50
2023-05-06T21:44:29.122Z,4.50
2023-05-06T21:46:57.271Z,4.50
2023-05-06T21:49:25.537Z,4.70
2023-05-06T21:51:53.589Z,4.50
2023-05-06T21:54:21.695Z,4.80
2023-05-06T21:56:49.761Z,4.60
2023-05-06T21:59:19.940Z,4.80
2023-05-06T22:01:48.415Z,5.20
2023-05-06T22:04:16.987Z,5.00
2023-05-06T22:06:44.948Z,4.40
2023-05-06T22:09:12.921Z,4.80
2023-05-06T22:11:41.099Z,4.30
2023-05-06T22:14:09.635Z,4.50
2023-05-06T22:16:41.586Z,4.50
2023-05-06T22:19:09.592Z,4.00
2023-05-06T22:21:37.844Z,4.30
2023-05-06T22:24:06.129Z,4.20
2023-05-06T22:26:34.191Z,4.30
2023-05-06T22:29:02.259Z,4.10
2023-05-06T22:31:30.462Z,3.80
2023-05-06T22:34:03.624Z,3.90
2023-05-06T22:36:33.739Z,3.90
2023-05-06T22:39:02.267Z,3.70
2023-05-06T22:41:31.137Z,3.70
2023-05-06T22:44:02.250Z,3.70
2023-05-06T22:46:30.332Z,3.70
2023-05-06T22:48:58.596Z,4.80
2023-05-06T22:51:26.766Z,3.50
2023-05-06T22:53:54.736Z,4.00
2023-05-06T22:56:22.662Z,3.80
2023-05-06T22:58:50.773Z,4.10
2023-05-06T23:01:18.895Z,3.60
2023-05-06T23:03:47.016Z,3.60
2023-05-06T23:06:15.091Z,3.40
2023-05-06T23:08:43.063Z,3.50
2023-05-06T23:11:11.032Z,3.70
2023-05-06T23:13:39.098Z,4.00
2023-05-06T23:16:07.851Z,3.70
2023-05-06T23:18:36.507Z,3.70
2023-05-06T23:21:04.913Z,3.80
2023-05-06T23:23:33.324Z,3.50
2023-05-06T23:26:01.328Z,3.60
2023-05-06T23:28:29.509Z,3.80
2023-05-06T23:30:57.661Z,3.40
2023-05-06T23:33:26.018Z,3.90
2023-05-06T23:35:54.027Z,3.60
2023-05-06T23:38:22.001Z,3.60
2023-05-06T23:40:50.027Z,4.10
2023-05-06T23:43:17.947Z,3.90
2023-05-06T23:45:46.047Z,3.90
2023-05-06T23:48:13.941Z,4.00
2023-05-06T23:50:41.899Z,4.30
2023-05-06T23:53:09.824Z,3.50
2023-05-06T23:55:38.248Z,3.30
2023-05-06T23:58:06.313Z,3.70
